sensor_id;sensor_type;location;lat;lon;timestamp;pressure;altitude;pressure_sealevel;temperature;humidity
48790;BME280;41718;51.980;5.734;2023-04-22T00:02:25;100609.25;;;6.64;100.00
48790;BME280;41718;51.980;5.734;2023-04-22T00:07:27;100624.31;;;6.52;100.00
48790;BME280;41718;51.980;5.734;2023-04-22T00:12:28;100622.06;;;6.31;100.00
48790;BME280;41718;51.980;5.734;2023-04-22T00:17:31;100624.97;;;6.43;100.00
48790;BME280;41718;51.980;5.734;2023-04-22T00:22:33;100619.97;;;6.48;100.00
48790;BME280;41718;51.980;5.734;2023-04-22T00:27:34;100618.22;;;6.47;100.00
48790;BME280;41718;51.980;5.734;2023-04-22T00:32:36;100614.75;;;6.46;100.00
48790;BME280;41718;51.980;5.734;2023-04-22T00:37:38;100611.19;;;6.11;100.00
48790;BME280;41718;51.980;5.734;2023-04-22T00:42:41;100618.50;;;5.97;100.00
48790;BME280;41718;51.980;5.734;2023-04-22T00:47:44;100606.50;;;5.96;100.00
48790;BME280;41718;51.980;5.734;2023-04-22T00:52:46;100603.91;;;5.68;100.00
48790;BME280;41718;51.980;5.734;2023-04-22T00:57:49;100606.03;;;5.54;100.00
48790;BME280;41718;51.980;5.734;2023-04-22T01:02:53;100600.59;;;5.72;100.00
48790;BME280;41718;51.980;5.734;2023-04-22T01:07:55;100609.66;;;5.61;100.00
48790;BME280;41718;51.980;5.734;2023-04-22T01:12:57;100604.56;;;5.34;100.00
48790;BME280;41718;51.980;5.734;2023-04-22T01:17:59;100599.81;;;5.46;100.00
48790;BME280;41718;51.980;5.734;2023-04-22T01:23:02;100595.38;;;5.42;100.00
48790;BME280;41718;51.980;5.734;2023-04-22T01:28:10;100592.97;;;5.19;100.00
48790;BME280;41718;51.980;5.734;2023-04-22T01:33:14;100591.69;;;5.07;100.00
48790;BME280;41718;51.980;5.734;2023-04-22T01:38:16;100594.16;;;5.03;100.00
48790;BME280;41718;51.980;5.734;2023-04-22T01:43:18;100592.09;;;4.93;100.00
48790;BME280;41718;51.980;5.734;2023-04-22T01:48:19;100582.59;;;4.89;100.00
48790;BME280;41718;51.980;5.734;2023-04-22T01:53:21;100588.38;;;4.84;100.00
48790;BME280;41718;51.980;5.734;2023-04-22T01:58:22;100581.34;;;4.78;100.00
48790;BME280;41718;51.980;5.734;2023-04-22T02:03:24;100587.22;;;4.75;100.00
48790;BME280;41718;51.980;5.734;2023-04-22T02:08:25;100583.59;;;4.69;100.00
48790;BME280;41718;51.980;5.734;2023-04-22T02:13:34;100582.63;;;4.65;100.00
48790;BME280;41718;51.980;5.734;2023-04-22T02:18:36;100574.94;;;4.65;100.00
48790;BME280;41718;51.980;5.734;2023-04-22T02:23:38;100569.59;;;4.59;100.00
48790;BME280;41718;51.980;5.734;2023-04-22T02:28:39;100565.25;;;4.57;100.00
48790;BME280;41718;51.980;5.734;2023-04-22T02:33:41;100570.00;;;4.46;100.00
48790;BME280;41718;51.980;5.734;2023-04-22T02:38:43;100565.13;;;4.53;100.00
48790;BME280;41718;51.980;5.734;2023-04-22T02:43:44;100555.88;;;4.57;100.00
48790;BME280;41718;51.980;5.734;2023-04-22T02:48:46;100556.69;;;4.56;100.00
48790;BME280;41718;51.980;5.734;2023-04-22T02:53:48;100551.56;;;4.56;100.00
48790;BME280;41718;51.980;5.734;2023-04-22T02:58:50;100547.34;;;4.58;100.00
48790;BME280;41718;51.980;5.734;2023-04-22T03:03:51;100541.78;;;4.70;100.00
48790;BME280;41718;51.980;5.734;2023-04-22T03:08:53;100529.84;;;4.70;100.00
48790;BME280;41718;51.980;5.734;2023-04-22T03:13:56;100538.50;;;4.74;100.00
48790;BME280;41718;51.980;5.734;2023-04-22T03:18:58;100527.44;;;4.75;100.00
48790;BME280;41718;51.980;5.734;2023-04-22T03:23:59;100529.53;;;4.61;100.00
48790;BME280;41718;51.980;5.734;2023-04-22T03:29:01;100525.97;;;4.56;100.00
48790;BME280;41718;51.980;5.734;2023-04-22T03:34:02;100513.59;;;4.70;100.00
48790;BME280;41718;51.980;5.734;2023-04-22T03:39:04;100503.47;;;5.00;100.00
48790;BME280;41718;51.980;5.734;2023-04-22T03:44:05;100494.31;;;5.35;100.00
48790;BME280;41718;51.980;5.734;2023-04-22T03:49:07;100479.72;;;5.91;100.00
48790;BME280;41718;51.980;5.734;2023-04-22T03:54:08;100472.69;;;6.17;100.00
48790;BME280;41718;51.980;5.734;2023-04-22T03:59:10;100459.13;;;6.56;100.00
48790;BME280;41718;51.980;5.734;2023-04-22T04:04:11;100452.09;;;6.85;100.00
48790;BME280;41718;51.980;5.734;2023-04-22T04:09:13;100450.56;;;6.55;100.00
48790;BME280;41718;51.980;5.734;2023-04-22T04:14:15;100442.19;;;7.00;100.00
48790;BME280;41718;51.980;5.734;2023-04-22T04:19:16;100433.66;;;7.03;100.00
48790;BME280;41718;51.980;5.734;2023-04-22T04:24:18;100435.25;;;6.98;100.00
48790;BME280;41718;51.980;5.734;2023-04-22T04:29:19;100438.59;;;6.92;100.00
48790;BME280;41718;51.980;5.734;2023-04-22T04:34:21;100429.75;;;6.81;100.00
48790;BME280;41718;51.980;5.734;2023-04-22T04:39:23;100420.09;;;6.36;100.00
48790;BME280;41718;51.980;5.734;2023-04-22T04:44:26;100418.09;;;6.59;100.00
48790;BME280;41718;51.980;5.734;2023-04-22T04:49:28;100414.03;;;6.69;100.00
48790;BME280;41718;51.980;5.734;2023-04-22T04:54:30;100410.31;;;6.21;100.00
48790;BME280;41718;51.980;5.734;2023-04-22T04:59:32;100400.31;;;5.99;100.00
48790;BME280;41718;51.980;5.734;2023-04-22T05:04:33;100401.69;;;5.88;100.00
48790;BME280;41718;51.980;5.734;2023-04-22T05:09:35;100407.06;;;5.95;100.00
48790;BME280;41718;51.980;5.734;2023-04-22T05:14:38;100404.06;;;6.11;100.00
48790;BME280;41718;51.980;5.734;2023-04-22T05:19:41;100403.22;;;6.83;100.00
48790;BME280;41718;51.980;5.734;2023-04-22T05:24:42;100401.16;;;7.06;100.00
48790;BME280;41718;51.980;5.734;2023-04-22T05:29:44;100390.63;;;7.35;100.00
48790;BME280;41718;51.980;5.734;2023-04-22T05:34:46;100390.09;;;7.51;100.00
48790;BME280;41718;51.980;5.734;2023-04-22T05:39:47;100397.94;;;7.59;100.00
48790;BME280;41718;51.980;5.734;2023-04-22T05:44:49;100390.19;;;7.56;100.00
48790;BME280;41718;51.980;5.734;2023-04-22T05:49:51;100379.19;;;7.64;100.00
48790;BME280;41718;51.980;5.734;2023-04-22T05:54:52;100364.84;;;7.77;100.00
48790;BME280;41718;51.980;5.734;2023-04-22T05:59:54;100365.03;;;7.88;100.00
48790;BME280;41718;51.980;5.734;2023-04-22T06:04:55;100372.81;;;7.89;100.00
48790;BME280;41718;51.980;5.734;2023-04-22T06:09:58;100363.56;;;8.02;100.00
48790;BME280;41718;51.980;5.734;2023-04-22T06:15:06;100360.34;;;8.15;100.00
48790;BME280;41718;51.980;5.734;2023-04-22T06:20:08;100361.50;;;8.33;100.00
48790;BME280;41718;51.980;5.734;2023-04-22T06:25:10;100361.66;;;8.40;100.00
48790;BME280;41718;51.980;5.734;2023-04-22T06:30:11;100348.72;;;8.39;100.00
48790;BME280;41718;51.980;5.734;2023-04-22T06:35:13;100347.25;;;8.53;100.00
48790;BME280;41718;51.980;5.734;2023-04-22T06:40:15;100337.72;;;9.13;100.00
48790;BME280;41718;51.980;5.734;2023-04-22T06:45:16;100317.59;;;9.57;100.00
48790;BME280;41718;51.980;5.734;2023-04-22T06:50:18;100309.16;;;9.75;100.00
48790;BME280;41718;51.980;5.734;2023-04-22T06:55:19;100290.56;;;10.19;100.00
48790;BME280;41718;51.980;5.734;2023-04-22T07:00:22;100301.97;;;10.42;100.00
48790;BME280;41718;51.980;5.734;2023-04-22T07:05:23;100298.44;;;10.29;100.00
48790;BME280;41718;51.980;5.734;2023-04-22T07:10:24;100296.78;;;10.39;100.00
48790;BME280;41718;51.980;5.734;2023-04-22T07:15:26;100291.00;;;10.86;100.00
48790;BME280;41718;51.980;5.734;2023-04-22T07:20:27;100282.44;;;11.05;100.00
48790;BME280;41718;51.980;5.734;2023-04-22T07:25:29;100294.50;;;10.96;100.00
48790;BME280;41718;51.980;5.734;2023-04-22T07:30:31;100285.06;;;11.07;100.00
48790;BME280;41718;51.980;5.734;2023-04-22T07:35:32;100287.66;;;11.11;100.00
48790;BME280;41718;51.980;5.734;2023-04-22T07:40:34;100284.28;;;11.32;100.00
48790;BME280;41718;51.980;5.734;2023-04-22T07:45:35;100286.03;;;11.44;100.00
48790;BME280;41718;51.980;5.734;2023-04-22T07:50:37;100289.59;;;11.92;100.00
48790;BME280;41718;51.980;5.734;2023-04-22T07:55:39;100297.34;;;11.89;100.00
48790;BME280;41718;51.980;5.734;2023-04-22T08:00:40;100302.53;;;12.07;100.00
48790;BME280;41718;51.980;5.734;2023-04-22T08:05:42;100313.78;;;12.22;100.00
48790;BME280;41718;51.980;5.734;2023-04-22T08:10:43;100315.47;;;12.52;100.00
48790;BME280;41718;51.980;5.734;2023-04-22T08:15:45;100332.75;;;12.53;100.00
48790;BME280;41718;51.980;5.734;2023-04-22T08:20:47;100331.91;;;12.35;100.00
48790;BME280;41718;51.980;5.734;2023-04-22T08:25:48;100313.69;;;12.72;100.00
48790;BME280;41718;51.980;5.734;2023-04-22T08:30:50;100313.69;;;12.69;100.00
48790;BME280;41718;51.980;5.734;2023-04-22T08:35:51;100305.72;;;13.15;100.00
48790;BME280;41718;51.980;5.734;2023-04-22T08:40:55;100306.59;;;13.18;100.00
48790;BME280;41718;51.980;5.734;2023-04-22T08:45:57;100322.00;;;13.58;100.00
48790;BME280;41718;51.980;5.734;2023-04-22T08:50:59;100322.75;;;13.77;100.00
48790;BME280;41718;51.980;5.734;2023-04-22T08:56:00;100326.84;;;14.09;100.00
48790;BME280;41718;51.980;5.734;2023-04-22T09:01:02;100320.78;;;14.06;100.00
48790;BME280;41718;51.980;5.734;2023-04-22T09:06:05;100314.31;;;14.55;100.00
48790;BME280;41718;51.980;5.734;2023-04-22T09:11:07;100329.09;;;14.51;100.00
48790;BME280;41718;51.980;5.734;2023-04-22T09:16:08;100327.69;;;15.01;100.00
48790;BME280;41718;51.980;5.734;2023-04-22T09:21:10;100304.22;;;15.03;100.00
48790;BME280;41718;51.980;5.734;2023-04-22T09:26:12;100303.97;;;15.24;100.00
48790;BME280;41718;51.980;5.734;2023-04-22T09:31:15;100303.81;;;15.35;100.00
48790;BME280;41718;51.980;5.734;2023-04-22T09:36:29;100305.16;;;15.67;100.00
48790;BME280;41718;51.980;5.734;2023-04-22T09:41:33;100296.97;;;15.88;100.00
48790;BME280;41718;51.980;5.734;2023-04-22T09:46:35;100298.91;;;16.31;100.00
48790;BME280;41718;51.980;5.734;2023-04-22T09:51:40;100304.56;;;16.03;100.00
48790;BME280;41718;51.980;5.734;2023-04-22T09:56:49;100303.00;;;15.95;100.00
48790;BME280;41718;51.980;5.734;2023-04-22T10:01:54;100294.66;;;16.24;100.00
48790;BME280;41718;51.980;5.734;2023-04-22T10:06:55;100301.34;;;16.38;100.00
48790;BME280;41718;51.980;5.734;2023-04-22T10:11:57;100300.56;;;16.33;100.00
48790;BME280;41718;51.980;5.734;2023-04-22T10:16:59;100283.53;;;17.07;100.00
48790;BME280;41718;51.980;5.734;2023-04-22T10:22:03;100295.19;;;17.32;100.00
48790;BME280;41718;51.980;5.734;2023-04-22T10:27:05;100291.00;;;17.23;100.00
48790;BME280;41718;51.980;5.734;2023-04-22T10:37:12;100317.66;;;16.99;100.00
48790;BME280;41718;51.980;5.734;2023-04-22T10:42:14;100306.47;;;17.34;100.00
48790;BME280;41718;51.980;5.734;2023-04-22T10:52:29;100310.69;;;17.82;100.00
48790;BME280;41718;51.980;5.734;2023-04-22T10:57:43;100296.34;;;17.59;100.00
48790;BME280;41718;51.980;5.734;2023-04-22T11:08:17;100304.03;;;17.65;100.00
48790;BME280;41718;51.980;5.734;2023-04-22T11:13:21;100308.16;;;17.37;100.00
48790;BME280;41718;51.980;5.734;2023-04-22T11:18:25;100302.13;;;17.73;100.00
48790;BME280;41718;51.980;5.734;2023-04-22T11:23:27;100301.53;;;17.98;100.00
48790;BME280;41718;51.980;5.734;2023-04-22T11:28:31;100288.09;;;17.78;100.00
48790;BME280;41718;51.980;5.734;2023-04-22T11:33:33;100298.56;;;17.37;100.00
48790;BME280;41718;51.980;5.734;2023-04-22T11:38:37;100288.03;;;17.40;100.00
48790;BME280;41718;51.980;5.734;2023-04-22T11:43:46;100296.88;;;17.35;100.00
48790;BME280;41718;51.980;5.734;2023-04-22T11:48:49;100303.25;;;16.80;100.00
48790;BME280;41718;51.980;5.734;2023-04-22T11:53:50;100305.38;;;16.56;100.00
48790;BME280;41718;51.980;5.734;2023-04-22T11:58:52;100301.06;;;16.55;100.00
48790;BME280;41718;51.980;5.734;2023-04-22T12:03:58;100296.00;;;16.46;100.00
48790;BME280;41718;51.980;5.734;2023-04-22T12:09:01;100298.25;;;16.18;100.00
48790;BME280;41718;51.980;5.734;2023-04-22T12:14:05;100288.59;;;16.22;100.00
48790;BME280;41718;51.980;5.734;2023-04-22T12:19:12;100298.47;;;16.04;100.00
48790;BME280;41718;51.980;5.734;2023-04-22T12:24:14;100304.81;;;15.89;100.00
48790;BME280;41718;51.980;5.734;2023-04-22T12:29:15;100317.91;;;15.85;100.00
48790;BME280;41718;51.980;5.734;2023-04-22T12:34:17;100315.69;;;15.57;100.00
48790;BME280;41718;51.980;5.734;2023-04-22T12:39:20;100313.50;;;15.27;100.00
48790;BME280;41718;51.980;5.734;2023-04-22T12:44:21;100311.88;;;15.17;100.00
48790;BME280;41718;51.980;5.734;2023-04-22T12:49:25;100306.75;;;15.10;100.00
48790;BME280;41718;51.980;5.734;2023-04-22T12:54:27;100291.22;;;15.01;100.00
48790;BME280;41718;51.980;5.734;2023-04-22T12:59:28;100301.91;;;14.80;100.00
48790;BME280;41718;51.980;5.734;2023-04-22T13:04:30;100299.34;;;14.77;100.00
48790;BME280;41718;51.980;5.734;2023-04-22T13:09:31;100305.41;;;14.77;100.00
48790;BME280;41718;51.980;5.734;2023-04-22T13:14:33;100313.50;;;14.53;100.00
48790;BME280;41718;51.980;5.734;2023-04-22T13:19:34;100307.69;;;14.19;100.00
48790;BME280;41718;51.980;5.734;2023-04-22T13:24:38;100288.59;;;14.21;100.00
48790;BME280;41718;51.980;5.734;2023-04-22T13:29:40;100313.88;;;14.04;100.00
48790;BME280;41718;51.980;5.734;2023-04-22T13:34:45;100322.75;;;13.78;100.00
48790;BME280;41718;51.980;5.734;2023-04-22T13:39:49;100322.09;;;13.43;100.00
48790;BME280;41718;51.980;5.734;2023-04-22T13:45:00;100319.38;;;13.60;100.00
48790;BME280;41718;51.980;5.734;2023-04-22T13:50:04;100316.03;;;13.38;100.00
48790;BME280;41718;51.980;5.734;2023-04-22T13:55:14;100311.66;;;13.50;100.00
48790;BME280;41718;51.980;5.734;2023-04-22T14:00:18;100307.38;;;13.42;100.00
48790;BME280;41718;51.980;5.734;2023-04-22T14:05:21;100310.91;;;13.27;100.00
48790;BME280;41718;51.980;5.734;2023-04-22T14:10:22;100304.91;;;13.22;100.00
48790;BME280;41718;51.980;5.734;2023-04-22T14:15:26;100291.00;;;13.15;100.00
48790;BME280;41718;51.980;5.734;2023-04-22T14:20:28;100291.94;;;13.02;100.00
48790;BME280;41718;51.980;5.734;2023-04-22T14:25:30;100286.69;;;13.14;100.00
48790;BME280;41718;51.980;5.734;2023-04-22T14:30:32;100286.69;;;13.25;100.00
48790;BME280;41718;51.980;5.734;2023-04-22T14:35:34;100284.91;;;13.32;100.00
48790;BME280;41718;51.980;5.734;2023-04-22T14:40:36;100278.03;;;13.28;100.00
48790;BME280;41718;51.980;5.734;2023-04-22T14:45:38;100287.44;;;13.44;100.00
48790;BME280;41718;51.980;5.734;2023-04-22T14:50:41;100284.06;;;13.26;100.00
48790;BME280;41718;51.980;5.734;2023-04-22T14:55:42;100286.59;;;13.42;100.00
48790;BME280;41718;51.980;5.734;2023-04-22T15:00:45;100283.94;;;13.51;100.00
48790;BME280;41718;51.980;5.734;2023-04-22T15:05:47;100278.88;;;13.25;100.00
48790;BME280;41718;51.980;5.734;2023-04-22T15:10:54;100293.59;;;13.21;100.00
48790;BME280;41718;51.980;5.734;2023-04-22T15:15:59;100284.09;;;13.23;100.00
48790;BME280;41718;51.980;5.734;2023-04-22T15:21:32;100283.19;;;13.20;100.00
48790;BME280;41718;51.980;5.734;2023-04-22T15:26:40;100275.47;;;13.11;100.00
48790;BME280;41718;51.980;5.734;2023-04-22T15:31:43;100286.69;;;13.16;100.00
48790;BME280;41718;51.980;5.734;2023-04-22T15:56:00;100280.81;;;12.74;100.00
48790;BME280;41718;51.980;5.734;2023-04-22T16:01:22;100287.69;;;12.84;100.00
48790;BME280;41718;51.980;5.734;2023-04-22T16:06:24;100279.03;;;12.85;100.00
48790;BME280;41718;51.980;5.734;2023-04-22T16:11:29;100277.34;;;12.73;100.00
48790;BME280;41718;51.980;5.734;2023-04-22T16:16:31;100289.50;;;12.62;100.00
48790;BME280;41718;51.980;5.734;2023-04-22T16:21:33;100273.91;;;12.67;100.00
48790;BME280;41718;51.980;5.734;2023-04-22T16:26:34;100276.50;;;12.64;100.00
48790;BME280;41718;51.980;5.734;2023-04-22T16:31:36;100283.47;;;12.56;100.00
48790;BME280;41718;51.980;5.734;2023-04-22T16:36:38;100275.69;;;12.54;100.00
48790;BME280;41718;51.980;5.734;2023-04-22T16:41:42;100281.78;;;12.19;100.00
48790;BME280;41718;51.980;5.734;2023-04-22T16:46:44;100285.25;;;12.14;100.00
48790;BME280;41718;51.980;5.734;2023-04-22T16:51:49;100283.50;;;11.81;100.00
48790;BME280;41718;51.980;5.734;2023-04-22T16:56:50;100300.75;;;11.65;100.00
48790;BME280;41718;51.980;5.734;2023-04-22T17:01:52;100304.16;;;11.43;100.00
48790;BME280;41718;51.980;5.734;2023-04-22T17:06:53;100298.91;;;11.27;100.00
48790;BME280;41718;51.980;5.734;2023-04-22T17:11:55;100297.22;;;11.25;100.00
48790;BME280;41718;51.980;5.734;2023-04-22T17:16:57;100298.94;;;11.24;100.00
48790;BME280;41718;51.980;5.734;2023-04-22T17:21:58;100309.25;;;11.13;100.00
48790;BME280;41718;51.980;5.734;2023-04-22T17:27:02;100309.28;;;11.24;100.00
48790;BME280;41718;51.980;5.734;2023-04-22T17:32:04;100317.00;;;11.10;100.00
48790;BME280;41718;51.980;5.734;2023-04-22T17:37:06;100322.03;;;10.83;100.00
48790;BME280;41718;51.980;5.734;2023-04-22T17:42:07;100327.22;;;10.87;100.00
48790;BME280;41718;51.980;5.734;2023-04-22T17:47:09;100326.28;;;10.72;100.00
48790;BME280;41718;51.980;5.734;2023-04-22T17:52:11;100321.94;;;10.65;100.00
48790;BME280;41718;51.980;5.734;2023-04-22T17:57:12;100325.50;;;10.86;100.00
48790;BME280;41718;51.980;5.734;2023-04-22T18:02:14;100336.72;;;10.84;100.00
48790;BME280;41718;51.980;5.734;2023-04-22T18:07:15;100340.03;;;10.61;100.00
48790;BME280;41718;51.980;5.734;2023-04-22T18:12:18;100338.31;;;10.64;100.00
48790;BME280;41718;51.980;5.734;2023-04-22T18:17:21;100346.03;;;10.59;100.00
48790;BME280;41718;51.980;5.734;2023-04-22T18:22:23;100351.06;;;10.38;100.00
48790;BME280;41718;51.980;5.734;2023-04-22T18:27:24;100366.59;;;10.41;100.00
48790;BME280;41718;51.980;5.734;2023-04-22T18:32:26;100376.06;;;10.37;100.00
48790;BME280;41718;51.980;5.734;2023-04-22T18:37:28;100388.66;;;10.03;100.00
48790;BME280;41718;51.980;5.734;2023-04-22T18:42:31;100407.59;;;10.04;100.00
48790;BME280;41718;51.980;5.734;2023-04-22T18:47:32;100412.78;;;10.04;100.00
48790;BME280;41718;51.980;5.734;2023-04-22T18:52:35;100419.53;;;9.88;100.00
48790;BME280;41718;51.980;5.734;2023-04-22T18:57:42;100426.09;;;9.63;100.00
48790;BME280;41718;51.980;5.734;2023-04-22T19:03:08;100431.47;;;9.77;100.00
48790;BME280;41718;51.980;5.734;2023-04-22T19:08:37;100430.41;;;9.64;100.00
48790;BME280;41718;51.980;5.734;2023-04-22T19:13:53;100437.28;;;9.62;100.00
48790;BME280;41718;51.980;5.734;2023-04-22T19:19:04;100444.09;;;9.55;100.00
48790;BME280;41718;51.980;5.734;2023-04-22T19:29:59;100466.16;;;9.31;100.00
48790;BME280;41718;51.980;5.734;2023-04-22T19:35:07;100477.13;;;9.16;100.00
48790;BME280;41718;51.980;5.734;2023-04-22T19:40:26;100470.22;;;9.13;100.00
48790;BME280;41718;51.980;5.734;2023-04-22T19:45:37;100479.66;;;9.13;100.00
48790;BME280;41718;51.980;5.734;2023-04-22T19:50:53;100476.19;;;9.09;100.00
48790;BME280;41718;51.980;5.734;2023-04-22T19:56:10;100483.75;;;8.98;100.00
48790;BME280;41718;51.980;5.734;2023-04-22T20:01:18;100492.34;;;8.97;100.00
48790;BME280;41718;51.980;5.734;2023-04-22T20:06:23;100495.69;;;8.92;100.00
48790;BME280;41718;51.980;5.734;2023-04-22T20:11:35;100495.44;;;8.75;100.00
48790;BME280;41718;51.980;5.734;2023-04-22T20:16:58;100495.19;;;8.61;100.00
48790;BME280;41718;51.980;5.734;2023-04-22T20:22:04;100497.63;;;8.54;100.00
48790;BME280;41718;51.980;5.734;2023-04-22T20:27:11;100489.84;;;8.50;100.00
48790;BME280;41718;51.980;5.734;2023-04-22T20:32:19;100484.47;;;8.38;100.00
48790;BME280;41718;51.980;5.734;2023-04-22T20:37:25;100473.38;;;8.42;100.00
48790;BME280;41718;51.980;5.734;2023-04-22T20:42:39;100475.88;;;8.38;100.00
48790;BME280;41718;51.980;5.734;2023-04-22T20:47:59;100474.75;;;8.25;100.00
48790;BME280;41718;51.980;5.734;2023-04-22T20:53:13;100484.13;;;8.20;100.00
48790;BME280;41718;51.980;5.734;2023-04-22T20:58:24;100492.63;;;8.16;100.00
48790;BME280;41718;51.980;5.734;2023-04-22T21:03:29;100486.66;;;8.17;100.00
48790;BME280;41718;51.980;5.734;2023-04-22T21:08:32;100495.19;;;8.16;100.00
48790;BME280;41718;51.980;5.734;2023-04-22T21:14:03;100472.66;;;8.04;100.00
48790;BME280;41718;51.980;5.734;2023-04-22T21:19:12;100484.53;;;7.96;100.00
48790;BME280;41718;51.980;5.734;2023-04-22T21:24:17;100481.09;;;7.97;100.00
48790;BME280;41718;51.980;5.734;2023-04-22T21:29:29;100480.88;;;7.85;100.00
48790;BME280;41718;51.980;5.734;2023-04-22T21:34:43;100489.97;;;7.67;100.00
48790;BME280;41718;51.980;5.734;2023-04-22T21:39:48;100498.06;;;7.87;100.00
48790;BME280;41718;51.980;5.734;2023-04-22T21:44:54;100481.78;;;7.88;100.00
48790;BME280;41718;51.980;5.734;2023-04-22T21:49:58;100485.28;;;7.92;100.00
48790;BME280;41718;51.980;5.734;2023-04-22T21:55:16;100483.31;;;7.77;100.00
48790;BME280;41718;51.980;5.734;2023-04-22T22:00:21;100486.66;;;7.75;100.00
48790;BME280;41718;51.980;5.734;2023-04-22T22:05:32;100488.41;;;7.76;100.00
48790;BME280;41718;51.980;5.734;2023-04-22T22:10:34;100487.44;;;7.70;100.00
48790;BME280;41718;51.980;5.734;2023-04-22T22:15:51;100497.84;;;7.77;100.00
48790;BME280;41718;51.980;5.734;2023-04-22T22:21:12;100489.13;;;7.68;100.00
48790;BME280;41718;51.980;5.734;2023-04-22T22:26:17;100482.00;;;7.57;100.00
48790;BME280;41718;51.980;5.734;2023-04-22T22:31:32;100484.59;;;7.57;100.00
48790;BME280;41718;51.980;5.734;2023-04-22T22:36:45;100488.78;;;7.53;100.00
48790;BME280;41718;51.980;5.734;2023-04-22T22:41:50;100495.63;;;7.51;100.00
48790;BME280;41718;51.980;5.734;2023-04-22T22:46:52;100494.81;;;7.54;100.00
48790;BME280;41718;51.980;5.734;2023-04-22T22:51:58;100498.44;;;7.63;100.00
48790;BME280;41718;51.980;5.734;2023-04-22T22:57:03;100477.00;;;7.63;100.00
48790;BME280;41718;51.980;5.734;2023-04-22T23:02:08;100490.69;;;7.62;100.00
48790;BME280;41718;51.980;5.734;2023-04-22T23:07:10;100490.69;;;7.60;100.00
48790;BME280;41718;51.980;5.734;2023-04-22T23:12:11;100494.06;;;7.59;100.00
48790;BME280;41718;51.980;5.734;2023-04-22T23:17:12;100498.16;;;7.50;100.00
48790;BME280;41718;51.980;5.734;2023-04-22T23:22:14;100491.94;;;7.40;100.00
48790;BME280;41718;51.980;5.734;2023-04-22T23:27:16;100488.47;;;7.38;100.00
48790;BME280;41718;51.980;5.734;2023-04-22T23:32:18;100480.78;;;7.39;100.00
48790;BME280;41718;51.980;5.734;2023-04-22T23:37:22;100466.97;;;7.36;100.00
48790;BME280;41718;51.980;5.734;2023-04-22T23:42:24;100468.66;;;7.34;100.00
48790;BME280;41718;51.980;5.734;2023-04-22T23:47:26;100457.53;;;7.36;100.00
48790;BME280;41718;51.980;5.734;2023-04-22T23:52:28;100454.09;;;7.36;100.00
48790;BME280;41718;51.980;5.734;2023-04-22T23:57:30;100443.66;;;7.28;100.00
